Alma, Kansas
Current Conditions -  °F | °C
As of 6:52 AM on Thursday 27 Nov 2014 (Local Time) from KMHK Reporting Station
Few Clouds Few Clouds  
Wind Chill: 15°   Ceiling: Unl
Heat Index: 15°   Visibility: 10mi
Dew Point: 13°   Wind: 0mph
Humidity: 91%   Direction: NA
Pressure: 30.52"   Gusts: NA
Location:  39.02°N, 96.29°W
Report Text: KMHK 271252Z 00000KT 10SM FEW070 M09/M11 A3052 RMK AO2 SLP351 T10941106
Loading
Personal Weather Stations






























Interactive Weather Map New forecast layout! Learn more

10-Day Weather Forecast

Advertisements
Track Severe Weather on mobile